ADDS METAR Data INFO
IDs: Format: Raw Decoded Include TAF

Data at: 0504 UTC 23 May 2017

KU68 230455Z AUTO 34006KT 10SM CLR 09/05 A3024 RMK AO2
KU68 230435Z AUTO 30003KT 10SM CLR 10/05 A3025 RMK AO2
KU68 230415Z AUTO 29007KT 10SM CLR 09/05 A3024 RMK AO2
KU68 230355Z AUTO 28008KT 10SM CLR 10/05 A3024 RMK AO2
KU68 230335Z AUTO 28006KT 10SM CLR 10/05 A3023 RMK AO2
KU68 230315Z AUTO 25007KT 10SM CLR 11/06 A3022 RMK AO2
KU68 230255Z AUTO 29006KT 10SM CLR 11/05 A3021 RMK AO2
KU68 230235Z AUTO 34008KT 10SM CLR 12/05 A3020 RMK AO2
KU68 230215Z AUTO 34009KT 10SM CLR 12/05 A3020 RMK AO2
KU68 230155Z AUTO 34003KT 10SM SCT085 SCT120 13/05 A3020 RMK AO2 LTG DSNT S
KU68 230135Z AUTO 33005KT 10SM SCT031 SCT043 BKN085 12/06 A3021 RMK AO2
KU68 230115Z AUTO 32018G32KT 5SM RA SCT032 SCT044 BKN060 11/04 A3024 RMK AO2 LTG DSNT SW
KU68 230055Z AUTO 29005KT 10SM CLR 13/08 A3020 RMK AO2
KU68 230035Z AUTO 31005KT 10SM SCT050 SCT070 BKN120 12/07 A3020 RMK AO2
KU68 230015Z AUTO 32006G13KT 5SM -RA SCT047 SCT060 BKN080 12/05 A3020 RMK AO2
KU68 222355Z AUTO 32008KT 10SM -RA SCT049 SCT070 BKN080 16/04 A3020 RMK AO2 LTG DSNT SW
KU68 222335Z AUTO 30013G16KT 10SM CLR 17/05 A3020 RMK AO2
KU68 222315Z AUTO 30012KT 10SM CLR 16/05 A3020 RMK AO2
KU68 222255Z AUTO 29013G18KT 10SM SCT085 16/05 A3020 RMK AO2
KU68 222235Z AUTO 28014G18KT 10SM SCT085 16/05 A3021 RMK AO2
KU68 222215Z AUTO 29015KT 10SM SCT085 SCT100 13/05 A3022 RMK AO2
KU68 222155Z AUTO 29016KT 10SM SCT080 SCT100 SCT120 13/05 A3022 RMK AO2
KU68 222135Z AUTO 29022G26KT 10SM SCT065 SCT100 SCT120 13/06 A3021 RMK AO2
KU68 222115Z AUTO 29016KT 10SM BKN065 BKN080 BKN120 12/06 A3022 RMK AO2 LTG DSNT E AND SE
KU68 222055Z AUTO 30010KT 10SM SCT024 SCT042 OVC065 11/07 A3022 RMK AO2
KU68 222035Z AUTO 36020G28KT 5SM -RA SCT025 BKN042 OVC055 10/06 A3023 RMK AO2
KU68 222015Z AUTO 02016G24KT 10SM TS SCT043 BKN050 OVC055 13/04 A3021 RMK AO2 LTG DSNT N AND E
KU68 221955Z AUTO 02010G18KT 10SM SCT045 BKN055 OVC070 12/05 A3021 RMK AO2 LTG DSNT SE
KU68 221935Z AUTO 32019G26KT 10SM SCT065 BKN075 BKN095 15/05 A3020 RMK AO2
KU68 221915Z AUTO 31021G27KT 10SM SCT100 16/06 A3020 RMK AO2
KU68 221855Z AUTO 29018G23KT 10SM CLR 15/07 A3020 RMK AO2 LTG DSNT N
KU68 221835Z AUTO 30020G25KT 10SM CLR 13/07 A3020 RMK AO2
KU68 221815Z AUTO 30022G28KT 10SM SCT120 13/06 A3020 RMK AO2
KU68 221755Z AUTO 30018G27KT 10SM SCT120 13/07 A3021 RMK AO2
KU68 221735Z AUTO 30019G23KT 10SM SCT090 SCT110 12/08 A3022 RMK AO2 LTG DSNT E
KU68 221715Z AUTO 29017G22KT 10SM SCT060 SCT075 OVC090 11/07 A3022 RMK AO2
KU68 221655Z AUTO 29015G20KT 10SM -DZ SCT041 BKN060 OVC080 10/07 A3022 RMK AO2
KU68 221635Z AUTO 32015G23KT 10SM RA SCT038 BKN044 OVC075 10/06 A3024 RMK AO2 LTG DSNT E
KU68 221615Z AUTO 31016G19KT 10SM SCT043 BKN065 OVC075 10/07 A3022 RMK AO2 LTG DSNT E
KU68 221555Z AUTO 30018G24KT 10SM -RA BKN043 OVC048 10/07 A3021 RMK AO2 LTG DSNT E
KU68 221535Z AUTO 30013G18KT 10SM -RA SCT024 BKN043 OVC085 11/07 A3021 RMK AO2 LTG DSNT E
KU68 221515Z AUTO 30016G20KT 10SM -RA SCT021 BKN044 OVC050 10/07 A3021 RMK AO2 LTG DSNT E
KU68 221455Z AUTO 31010KT 10SM -RA OVC046 11/07 A3020 RMK AO2 LTG DSNT E
KU68 221435Z AUTO 30013G20KT 10SM DZ BKN048 OVC050 12/05 A3020 RMK AO2
KU68 221415Z AUTO 31014G27KT 10SM -RA SCT041 OVC055 12/03 A3019 RMK AO2
KU68 221355Z AUTO 32015G28KT 10SM -RA SCT042 BKN060 OVC070 12/03 A3020 RMK AO2
KU68 221335Z AUTO 29006KT 10SM SCT065 BKN070 BKN110 12/03 A3018 RMK AO2
KU68 221315Z AUTO 03003KT 10SM SCT055 BKN080 BKN090 11/03 A3017 RMK AO2
KU68 221255Z AUTO 35004KT 10SM SCT055 SCT070 BKN090 10/03 A3016 RMK AO2
KU68 221235Z AUTO 00000KT 10SM SCT070 BKN080 BKN100 09/05 A3016 RMK AO2
KU68 221215Z AUTO 00000KT 10SM SCT080 BKN120 08/05 A3015 RMK AO2
KU68 221155Z AUTO 00000KT 10SM SCT070 OVC080 08/04 A3014 RMK AO2
KU68 221135Z AUTO 00000KT 10SM SCT075 BKN090 08/04 A3014 RMK AO2
KU68 221115Z AUTO 00000KT 10SM CLR 08/03 A3014 RMK AO2
KU68 221055Z AUTO 00000KT 10SM CLR 08/03 A3015 RMK AO2
KU68 221035Z AUTO 00000KT 10SM SCT095 08/04 A3014 RMK AO2
KU68 221015Z AUTO 01004KT 10SM SCT095 09/04 A3016 RMK AO2
KU68 220955Z AUTO 00000KT 10SM SCT120 09/03 A3016 RMK AO2
KU68 220935Z AUTO 14004KT 10SM SCT120 08/03 A3016 RMK AO2
KU68 220915Z AUTO 09003KT 10SM SCT090 BKN120 09/03 A3016 RMK AO2
KU68 220855Z AUTO 07004KT 10SM SCT100 BKN120 10/03 A3016 RMK AO2
KU68 220835Z AUTO 00000KT 10SM SCT100 09/03 A3016 RMK AO2
KU68 220815Z AUTO 00000KT 10SM SCT090 SCT110 10/04 A3016 RMK AO2
KU68 220755Z AUTO 00000KT 10SM SCT090 BKN110 10/04 A3017 RMK AO2
KU68 220735Z AUTO 21004KT 10SM SCT085 BKN100 10/03 A3018 RMK AO2
KU68 220715Z AUTO 00000KT 10SM SCT100 SCT120 10/03 A3017 RMK AO2
KU68 220655Z AUTO 15004KT 10SM SCT095 SCT110 11/02 A3018 RMK AO2
KU68 220635Z AUTO 19008KT 10SM OVC095 11/03 A3018 RMK AO2
KU68 220615Z AUTO 21005KT 10SM BKN095 10/03 A3019 RMK AO2
KU68 220555Z AUTO 16004KT 10SM SCT095 11/02 A3018 RMK AO2
KU68 220535Z AUTO 00000KT 10SM SCT095 12/01 A3019 RMK AO2
KU68 220515Z AUTO 00000KT 10SM SCT120 13/00 A3018 RMK AO2
KU68 220455Z AUTO 00000KT 10SM SCT120 13/00 A3018 RMK AO2
KU68 220435Z AUTO 23003KT 10SM CLR 12/01 A3018 RMK AO2
KU68 220415Z AUTO 34007KT 10SM CLR 12/00 A3018 RMK AO2
KU68 220355Z AUTO 29003KT 10SM CLR 13/00 A3018 RMK AO2
KU68 220335Z AUTO 00000KT 10SM CLR 13/00 A3017 RMK AO2
KU68 220315Z AUTO 00000KT 10SM CLR 14/00 A3017 RMK AO2
KU68 220255Z AUTO 34003KT 10SM CLR 15/M01 A3017 RMK AO2
KU68 220235Z AUTO 32004KT 10SM CLR 16/M01 A3017 RMK AO2
KU68 220215Z AUTO 33005KT 10SM CLR 17/M02 A3016 RMK AO2
KU68 220155Z AUTO 32010KT 10SM CLR 17/M02 A3016 RMK AO2
KU68 220135Z AUTO 31016G23KT 10SM CLR 18/M02 A3016 RMK AO2
KU68 220115Z AUTO 31015G21KT 10SM CLR 18/M03 A3016 RMK AO2
KU68 220055Z AUTO 32016G20KT 10SM SCT090 18/M03 A3016 RMK AO2
KU68 220035Z AUTO 32019G23KT 10SM SCT090 19/M03 A3016 RMK AO2
KU68 220015Z AUTO 31016G24KT 10SM CLR 19/M03 A3016 RMK AO2 LTG DSNT S
KU68 212355Z AUTO 34014G23KT 10SM SCT090 19/M03 A3017 RMK AO2
KU68 212335Z AUTO 31015G24KT 10SM CLR 19/M03 A3017 RMK AO2
KU68 212315Z AUTO 31018G25KT 10SM SCT090 19/M03 A3017 RMK AO2
KU68 212255Z AUTO 33013G24KT 10SM SCT090 20/M02 A3017 RMK AO2 LTG DSNT S
KU68 212235Z AUTO 32018G24KT 10SM CLR 19/M03 A3018 RMK AO2 LTG DSNT S
KU68 212215Z AUTO 34016G22KT 10SM CLR 20/M01 A3018 RMK AO2
KU68 212155Z AUTO 34011G24KT 294V354 10SM SCT090 20/M04 A3018 RMK AO2
KU68 212135Z AUTO 32017KT 10SM SCT090 20/M03 A3018 RMK AO2
KU68 212115Z AUTO 31012G24KT 10SM CLR 20/M02 A3018 RMK AO2
KU68 212055Z AUTO 34013G20KT 10SM SCT090 19/M02 A3019 RMK AO2
KU68 212035Z AUTO 33016G24KT 10SM BKN090 20/M01 A3020 RMK AO2
KU68 212015Z AUTO 31016G22KT 10SM SCT080 SCT100 18/M01 A3019 RMK AO2
KU68 211955Z AUTO 34007KT 314V014 10SM SCT070 BKN100 16/M01 A3020 RMK AO2
KU68 211935Z AUTO 01012G19KT 334V044 10SM SCT043 SCT060 OVC090 16/00 A3021 RMK AO2
KU68 211915Z AUTO 34027G32KT 10SM SCT075 BKN095 16/00 A3021 RMK AO2
KU68 211855Z AUTO 32022G36KT 10SM SCT070 BKN095 16/00 A3022 RMK AO2
KU68 211835Z AUTO 32009G14KT 10SM TS SCT070 SCT085 17/00 A3021 RMK AO2
KU68 211815Z AUTO 05006KT 10SM SCT095 16/03 A3021 RMK AO2
KU68 211755Z AUTO 02009KT 10SM SCT070 BKN095 15/02 A3023 RMK AO2
KU68 211735Z AUTO 00000KT 10SM SCT060 BKN070 OVC095 15/02 A3022 RMK AO2
KU68 211715Z AUTO 00000KT 10SM SCT070 15/02 A3022 RMK AO2


Page loaded:  05:04 UTC  |   10:04 PM Pacific  |   11:04 PM Mountain  |   12:04 AM Central  |   01:04 AM Eastern

 

ADVISORIES

FORECASTS

FORECASTS

OBSERVATIONS

USER TOOLS

ABOUT US